RJOO/ITM METAR and TAF weather

Enter ICAO airport designator
Station Type Date Time Source
RJOO METAR 2019/04/18 10:00 UTC NOAA

RJOO 181000Z 24009KT 210V280 9999 FEW030 18/09 Q1012 RMK 1CU030 A2990


Station Type Date Time Source
RJOO Decoded METAR 2019/04/18 10:00 UTC NOAA

Osaka International Airport, Japan (RJOO) 34-47N 135-27E 15M
Apr 18, 2019 - 06:00 AM EDT / 2019.04.18 1000 UTC
Wind: from the WSW (240 degrees) at 10 MPH (9 KT) (direction variable):0
Visibility: greater than 7 mile(s):0
Sky conditions: mostly clear
Temperature: 64 F (18 C)
Dew Point: 48 F (9 C)
Relative Humidity: 55%
Pressure (altimeter): 29.88 in. Hg (1012 hPa)
ob: RJOO 181000Z 24009KT 210V280 9999 FEW030 18/09 Q1012 RMK 1CU030 A2990
cycle: 10

Station Type Date Time Source
RJOO TAF 2019/04/18 06:31 UTC NOAA

TAF RJOO 180506Z 1806/1912 22010KT 9999 FEW030
BECMG 1808/1810 24007KT
BECMG 1903/1906 34013KT

Example: see airport list